Terminal Aerodrome Forecast
Issued by NWS Wakefield, VA

Home | Current Version | Previous Version | Text Only | Print | Product List | Glossary On
Versions: 1 2 3 4 5 6 7 8 9 10 11 12 13 14
000
FTUS41 KAKQ 311120
TAFSBY
TAF
KSBY 311120Z 3112/0112 22006KT P6SM SCT250
     FM311500 23014G24KT P6SM SCT250
     FM311800 21020G28KT P6SM BKN120
     FM312300 25015KT P6SM BKN070
     FM010200 31012KT P6SM BKN100
     FM010700 34008KT P6SM SKC=

USA.gov is the U.S. government's official web portal to all federal, state and local government web resources and services.